Main page
METAR-TAF:

METAR-TAF

Airports :

Hazleton Regional Airport

Hazleton, Pennsylvania, United States

latitude: 40-59-12N, longitude: 075-59-42W, elevation: 1604 ft

Current weather observation

The report was made 15 minutes ago, at 09:56 UTC
Calm wind
Temperature 36°F
Humidity 93%
Pressure 30.25 in. Hg
Visibility: 10 miles
Clear sky

METAR: KHZL 220956Z AUTO 00000KT 10SM CLR 02/01 A3025 RMK AO2

Time: 06:11 (10:11 UTC)


TAF: missing

Weather observations and forecasts of more than 4000 airports (METAR and TAF reports).

The available stations are represented by yellow and red dots on the map.

Hover mouse over dot to see the name of the station.

Then click to see weather observations and forecasts.

To change the map : click on the green buttons with a black cross to zoom in, on the green button with a dash to zoom out, or on the green arrows for adjacent maps.


METAR-TAF: